createdAt,value
2017-10-27T00:00:05.870Z,8.30
2017-10-27T00:02:34.695Z,8.30
2017-10-27T00:05:03.474Z,8.30
2017-10-27T00:07:32.296Z,8.30
2017-10-27T00:10:01.852Z,8.30
2017-10-27T00:12:30.408Z,8.30
2017-10-27T00:14:59.230Z,8.30
2017-10-27T00:17:28.001Z,8.20
2017-10-27T00:19:56.810Z,8.20
2017-10-27T00:22:25.642Z,8.10
2017-10-27T00:24:55.203Z,8.10
2017-10-27T00:27:24.059Z,8.10
2017-10-27T00:29:52.882Z,8.10
2017-10-27T00:32:21.650Z,8.10
2017-10-27T00:34:50.457Z,8.10
2017-10-27T00:37:19.250Z,8.20
2017-10-27T00:39:48.002Z,8.20
2017-10-27T00:42:16.802Z,8.20
2017-10-27T00:44:45.599Z,8.10
2017-10-27T00:47:14.396Z,8.00
2017-10-27T00:49:43.206Z,8.00
2017-10-27T00:52:11.995Z,8.10
2017-10-27T00:54:40.759Z,8.20
2017-10-27T00:57:08.839Z,8.20
2017-10-27T00:59:37.315Z,8.10
2017-10-27T01:02:06.268Z,8.20
2017-10-27T01:04:35.058Z,8.10
2017-10-27T01:07:03.899Z,8.20
2017-10-27T01:09:32.735Z,8.10
2017-10-27T01:12:02.271Z,8.00
2017-10-27T01:14:31.150Z,8.00
2017-10-27T01:16:59.888Z,8.10
2017-10-27T01:19:27.975Z,8.00
2017-10-27T01:21:56.500Z,8.00
2017-10-27T01:24:24.635Z,8.00
2017-10-27T01:26:52.742Z,8.00
2017-10-27T01:29:21.296Z,8.00
2017-10-27T01:31:49.787Z,8.00
2017-10-27T01:34:18.662Z,8.00
2017-10-27T01:36:47.178Z,7.90
2017-10-27T01:39:16.027Z,7.90
2017-10-27T01:41:44.164Z,7.90
2017-10-27T01:44:13.046Z,7.90
2017-10-27T01:46:41.543Z,7.80
2017-10-27T01:49:09.638Z,7.90
2017-10-27T01:51:37.568Z,7.90
2017-10-27T01:54:05.999Z,7.90
2017-10-27T01:56:34.458Z,7.90
2017-10-27T01:59:03.293Z,8.00
2017-10-27T02:01:32.863Z,8.00
2017-10-27T02:04:01.340Z,8.00
2017-10-27T02:06:29.827Z,7.90
2017-10-27T02:08:58.619Z,7.90
2017-10-27T02:11:27.099Z,7.90
2017-10-27T02:13:56.239Z,7.80
2017-10-27T02:16:25.115Z,7.80
2017-10-27T02:18:53.634Z,7.80
2017-10-27T02:21:21.803Z,7.80
2017-10-27T02:23:50.238Z,7.80
2017-10-27T02:26:19.108Z,7.70
2017-10-27T02:28:47.883Z,7.70
2017-10-27T02:31:16.009Z,7.70
2017-10-27T02:33:44.377Z,7.70
2017-10-27T02:36:12.864Z,7.70
2017-10-27T02:38:41.020Z,7.70
2017-10-27T02:41:09.121Z,7.60
2017-10-27T02:43:38.707Z,7.70
2017-10-27T02:46:07.351Z,7.70
2017-10-27T02:48:36.100Z,7.70
2017-10-27T02:51:05.003Z,7.70
2017-10-27T02:53:34.552Z,7.70
2017-10-27T02:56:03.360Z,7.60
2017-10-27T02:58:34.126Z,7.60
2017-10-27T03:01:02.937Z,7.60
2017-10-27T03:03:31.734Z,7.50
2017-10-27T03:06:00.531Z,7.60
2017-10-27T03:08:29.345Z,7.60
2017-10-27T03:10:58.130Z,7.60
2017-10-27T03:13:27.011Z,7.60
2017-10-27T03:15:55.891Z,7.60
2017-10-27T03:18:24.719Z,7.60
2017-10-27T03:20:53.554Z,7.60
2017-10-27T03:23:22.413Z,7.50
2017-10-27T03:25:51.955Z,7.60
2017-10-27T03:28:20.744Z,7.60
2017-10-27T03:30:49.580Z,7.60
2017-10-27T03:33:18.436Z,7.70
2017-10-27T03:35:47.243Z,7.70
2017-10-27T03:38:15.732Z,7.70
2017-10-27T03:40:45.218Z,7.60
2017-10-27T03:43:14.051Z,7.60
2017-10-27T03:45:42.894Z,7.60
2017-10-27T03:48:11.706Z,7.60
2017-10-27T03:50:39.887Z,7.60
2017-10-27T03:53:08.760Z,7.60
2017-10-27T03:55:38.879Z,7.60
2017-10-27T03:58:08.778Z,7.60
2017-10-27T04:00:37.652Z,7.50
2017-10-27T04:03:06.796Z,7.50
2017-10-27T04:05:35.268Z,7.50
2017-10-27T04:08:03.783Z,7.50
2017-10-27T04:10:32.621Z,7.50
2017-10-27T04:13:02.211Z,7.60
2017-10-27T04:15:31.022Z,7.50
2017-10-27T04:18:01.784Z,7.50
2017-10-27T04:20:30.207Z,7.50
2017-10-27T04:22:59.003Z,7.50
2017-10-27T04:25:28.570Z,7.40
2017-10-27T04:27:57.359Z,7.40
2017-10-27T04:30:26.006Z,7.60
2017-10-27T04:32:55.590Z,7.60
2017-10-27T04:35:24.119Z,7.60
2017-10-27T04:37:52.866Z,7.60
2017-10-27T04:40:22.474Z,7.40
2017-10-27T04:42:51.262Z,7.50
2017-10-27T04:45:20.899Z,7.30
2017-10-27T04:53:30.228Z,7.30
2017-10-27T04:55:58.662Z,7.30
2017-10-27T04:58:27.711Z,7.40
2017-10-27T05:00:56.494Z,7.40
2017-10-27T05:03:25.230Z,7.50
2017-10-27T05:05:54.011Z,7.40
2017-10-27T05:08:23.522Z,7.30
2017-10-27T05:10:53.070Z,7.40
2017-10-27T05:13:22.819Z,7.40
2017-10-27T05:15:53.221Z,7.50
2017-10-27T05:18:29.531Z,7.50
2017-10-27T05:21:03.751Z,7.50
2017-10-27T05:23:39.057Z,7.40
2017-10-27T05:26:11.510Z,7.50
2017-10-27T05:28:40.339Z,7.50
2017-10-27T05:31:09.120Z,7.60
2017-10-27T05:33:38.657Z,7.50
2017-10-27T05:36:07.507Z,7.50
2017-10-27T05:38:36.357Z,7.50
2017-10-27T05:41:05.185Z,7.50
2017-10-27T05:43:33.762Z,7.60
2017-10-27T05:46:01.843Z,7.60
2017-10-27T05:48:30.833Z,7.50
2017-10-27T05:50:59.714Z,7.50
2017-10-27T05:53:28.583Z,7.60
2017-10-27T05:55:57.472Z,7.60
2017-10-27T05:58:26.305Z,7.60
2017-10-27T06:00:55.091Z,7.60
2017-10-27T06:03:24.299Z,7.60
2017-10-27T06:05:53.067Z,7.60
2017-10-27T06:08:21.862Z,7.60
2017-10-27T06:10:50.666Z,7.60
2017-10-27T06:13:19.454Z,7.80
2017-10-27T06:15:48.200Z,7.70
2017-10-27T06:18:17.007Z,7.70
2017-10-27T06:20:45.852Z,7.60
2017-10-27T06:23:14.675Z,7.60
2017-10-27T06:25:43.480Z,7.70
2017-10-27T06:28:12.330Z,7.80
2017-10-27T06:30:41.140Z,7.90
2017-10-27T06:33:10.093Z,7.90
2017-10-27T06:38:14.480Z,7.80
2017-10-27T06:40:43.349Z,7.90
2017-10-27T06:43:12.159Z,8.00
2017-10-27T06:45:41.938Z,8.00
2017-10-27T06:48:13.378Z,8.00
2017-10-27T06:50:42.103Z,8.00
2017-10-27T06:53:10.899Z,8.10
2017-10-27T06:55:39.449Z,8.00
2017-10-27T06:58:08.339Z,8.00
2017-10-27T07:00:36.586Z,8.00
2017-10-27T07:03:04.867Z,8.00
2017-10-27T07:05:33.463Z,8.00
2017-10-27T07:08:02.732Z,8.10
2017-10-27T07:10:31.577Z,8.10
2017-10-27T07:13:00.515Z,8.10
2017-10-27T07:15:29.107Z,8.10
2017-10-27T07:17:58.751Z,8.10
2017-10-27T07:20:27.618Z,8.10
2017-10-27T07:22:56.365Z,8.20
2017-10-27T07:25:25.201Z,8.20
2017-10-27T07:27:54.007Z,8.20
2017-10-27T07:30:23.216Z,8.30
2017-10-27T07:32:51.362Z,8.20
2017-10-27T07:35:20.044Z,8.30
2017-10-27T07:37:48.179Z,8.40
2017-10-27T07:40:16.769Z,8.40
2017-10-27T07:42:45.085Z,8.50
2017-10-27T07:45:13.525Z,8.60
2017-10-27T07:47:42.821Z,8.80
2017-10-27T07:50:11.736Z,8.90
2017-10-27T07:52:39.906Z,8.90
2017-10-27T07:55:08.362Z,9.00
2017-10-27T07:57:37.029Z,9.10
2017-10-27T08:00:05.310Z,9.20
2017-10-27T08:02:34.717Z,9.20
2017-10-27T08:05:02.628Z,9.30
2017-10-27T08:07:31.492Z,9.30
2017-10-27T08:09:59.715Z,9.40
2017-10-27T08:12:27.902Z,9.50
2017-10-27T08:14:59.208Z,9.50
2017-10-27T08:17:27.144Z,9.60
2017-10-27T08:19:55.027Z,9.80
2017-10-27T08:22:23.004Z,10.00
2017-10-27T08:24:51.710Z,10.10
2017-10-27T08:27:19.862Z,10.40
2017-10-27T08:29:49.826Z,10.60
2017-10-27T08:32:17.860Z,10.80
2017-10-27T08:34:46.047Z,11.00
2017-10-27T08:37:14.006Z,11.30
2017-10-27T08:39:42.192Z,11.30
2017-10-27T08:42:22.577Z,11.40
2017-10-27T08:44:50.794Z,11.40
2017-10-27T08:47:18.991Z,11.40
2017-10-27T08:49:46.908Z,11.40
2017-10-27T08:52:14.712Z,11.30
2017-10-27T08:54:43.327Z,11.30
2017-10-27T08:57:11.219Z,11.20
2017-10-27T09:06:32.418Z,11.60
2017-10-27T09:09:01.153Z,11.60
2017-10-27T09:11:29.559Z,12.00
2017-10-27T09:13:57.436Z,12.30
2017-10-27T09:16:25.276Z,12.60
2017-10-27T09:18:53.508Z,12.70
2017-10-27T09:21:21.758Z,12.60
2017-10-27T09:23:50.234Z,12.40
2017-10-27T09:26:18.458Z,12.20
2017-10-27T09:28:46.349Z,12.20
2017-10-27T09:31:14.584Z,12.20
2017-10-27T09:33:42.783Z,12.20
2017-10-27T09:36:11.125Z,12.10
2017-10-27T09:38:40.513Z,12.20
2017-10-27T09:41:08.756Z,12.10
2017-10-27T09:43:39.547Z,12.10
2017-10-27T09:46:07.935Z,12.10
2017-10-27T09:48:36.217Z,12.00
2017-10-27T09:51:04.040Z,12.00
2017-10-27T09:53:31.879Z,11.80
2017-10-27T09:55:59.718Z,11.70
2017-10-27T09:58:27.997Z,11.70
2017-10-27T10:00:56.205Z,11.60
2017-10-27T10:03:24.472Z,11.50
2017-10-27T10:05:52.764Z,11.40
2017-10-27T10:08:20.634Z,11.40
2017-10-27T10:10:49.629Z,11.40
2017-10-27T10:13:17.590Z,11.40
2017-10-27T10:15:46.171Z,11.70
2017-10-27T10:18:14.754Z,11.80
2017-10-27T10:20:42.615Z,11.80
2017-10-27T10:41:37.260Z,12.20
2017-10-27T10:44:05.062Z,12.10
2017-10-27T10:46:32.898Z,12.10
2017-10-27T10:49:01.148Z,12.00
2017-10-27T10:51:29.616Z,12.00
2017-10-27T10:56:42.449Z,12.10
2017-10-27T10:59:10.978Z,12.10
2017-10-27T11:01:38.896Z,12.10
2017-10-27T11:04:07.503Z,12.20
2017-10-27T11:06:35.514Z,12.20
2017-10-27T11:09:03.304Z,12.30
2017-10-27T11:11:31.119Z,12.30
2017-10-27T11:13:58.888Z,12.20
2017-10-27T11:16:27.434Z,12.20
2017-10-27T11:18:55.361Z,12.20
2017-10-27T11:21:24.660Z,12.10
2017-10-27T11:44:52.826Z,12.50
2017-10-27T11:47:21.282Z,12.50
2017-10-27T11:49:50.857Z,12.60
2017-10-27T11:52:19.373Z,12.70
2017-10-27T11:54:48.114Z,12.90
2017-10-27T11:57:17.386Z,13.10
2017-10-27T11:59:45.982Z,13.10
2017-10-27T12:02:14.542Z,13.10
2017-10-27T12:04:48.540Z,13.20
2017-10-27T12:07:16.587Z,13.00
2017-10-27T12:09:44.368Z,12.90
2017-10-27T12:12:18.086Z,12.70
2017-10-27T12:14:55.526Z,12.60
2017-10-27T12:17:27.098Z,12.60
2017-10-27T12:19:59.755Z,12.60
2017-10-27T12:22:27.639Z,12.50
2017-10-27T12:24:55.535Z,12.50
2017-10-27T12:27:23.952Z,12.40
2017-10-27T12:29:52.962Z,12.10
2017-10-27T12:32:21.147Z,12.10
2017-10-27T12:34:50.075Z,11.90
2017-10-27T12:37:18.263Z,11.90
2017-10-27T12:39:46.147Z,12.00
2017-10-27T12:44:52.683Z,11.80
2017-10-27T12:47:21.864Z,11.80
2017-10-27T12:49:50.921Z,11.70
2017-10-27T12:52:20.461Z,11.70
2017-10-27T12:54:56.587Z,11.60
2017-10-27T12:57:25.419Z,11.60
2017-10-27T12:59:54.784Z,11.70
2017-10-27T13:02:23.631Z,11.70
2017-10-27T13:04:53.027Z,11.70
2017-10-27T13:07:30.258Z,11.70
2017-10-27T13:10:04.138Z,11.70
2017-10-27T13:12:32.864Z,11.60
2017-10-27T13:15:00.792Z,11.60
2017-10-27T13:17:28.635Z,11.70
2017-10-27T13:19:56.807Z,11.60
2017-10-27T13:22:25.028Z,11.60
2017-10-27T13:24:57.493Z,11.40
2017-10-27T13:27:26.729Z,11.40
2017-10-27T13:29:55.088Z,11.30
2017-10-27T13:32:23.577Z,11.20
2017-10-27T13:34:51.350Z,11.10
2017-10-27T13:37:19.192Z,11.10
2017-10-27T13:39:48.205Z,11.10
2017-10-27T13:42:16.005Z,11.10
2017-10-27T13:44:43.844Z,11.10
2017-10-27T13:47:12.079Z,11.10
2017-10-27T13:49:40.662Z,11.10
2017-10-27T13:52:08.456Z,11.10
2017-10-27T13:54:36.642Z,11.10
2017-10-27T13:57:05.225Z,11.10
2017-10-27T13:59:33.399Z,11.10
2017-10-27T14:02:01.654Z,11.20
2017-10-27T14:04:29.588Z,11.30
2017-10-27T14:06:59.596Z,11.30
2017-10-27T14:09:29.147Z,11.40
2017-10-27T14:11:57.818Z,11.40
2017-10-27T14:14:25.700Z,11.30
2017-10-27T14:16:54.026Z,11.20
2017-10-27T14:19:22.175Z,11.10
2017-10-27T14:21:50.644Z,11.00
2017-10-27T14:24:19.260Z,11.00
2017-10-27T14:26:47.750Z,10.90
2017-10-27T14:29:16.274Z,10.90
2017-10-27T14:31:44.889Z,10.90
2017-10-27T14:34:13.020Z,10.90
2017-10-27T14:36:41.607Z,10.90
2017-10-27T14:39:09.779Z,10.90
2017-10-27T14:41:39.015Z,10.80
2017-10-27T14:44:07.532Z,10.80
2017-10-27T14:46:36.850Z,10.70
2017-10-27T14:49:05.028Z,10.60
2017-10-27T14:51:33.993Z,10.50
2017-10-27T14:54:02.787Z,10.30
2017-10-27T14:56:31.309Z,10.20
2017-10-27T14:59:00.559Z,10.00
2017-10-27T15:01:29.326Z,10.00
2017-10-27T15:03:57.831Z,9.90
2017-10-27T15:06:26.382Z,9.80
2017-10-27T15:08:54.900Z,9.70
2017-10-27T15:11:23.402Z,9.50
2017-10-27T15:13:51.899Z,9.40
2017-10-27T15:16:20.747Z,9.30
2017-10-27T15:18:49.551Z,9.30
2017-10-27T15:21:18.294Z,9.20
2017-10-27T15:23:47.135Z,9.10
2017-10-27T15:26:15.229Z,9.00
2017-10-27T15:28:43.463Z,8.60
2017-10-27T15:31:12.275Z,8.80
2017-10-27T15:33:41.076Z,8.60
2017-10-27T15:36:09.908Z,8.60
2017-10-27T15:38:38.911Z,8.50
2017-10-27T15:41:09.098Z,8.60
2017-10-27T15:43:38.137Z,9.10
2017-10-27T15:46:06.911Z,9.20
2017-10-27T15:48:36.473Z,9.30
2017-10-27T15:51:06.835Z,9.30
2017-10-27T15:53:35.652Z,9.20
2017-10-27T15:56:04.463Z,9.40
2017-10-27T15:58:34.686Z,9.40
2017-10-27T16:01:03.503Z,9.40
2017-10-27T16:03:32.297Z,9.30
2017-10-27T16:06:01.168Z,9.30
2017-10-27T16:08:30.010Z,9.30
2017-10-27T16:10:58.830Z,9.20
2017-10-27T16:13:27.614Z,9.00
2017-10-27T16:15:56.476Z,9.00
2017-10-27T16:18:25.259Z,8.80
2017-10-27T16:20:54.021Z,8.90
2017-10-27T16:23:22.839Z,8.90
2017-10-27T16:25:51.639Z,8.90
2017-10-27T16:28:20.088Z,8.90
2017-10-27T16:30:48.905Z,8.80
2017-10-27T16:33:17.708Z,8.80
2017-10-27T16:35:46.543Z,8.70
2017-10-27T16:38:15.641Z,8.60
2017-10-27T16:40:44.387Z,8.60
2017-10-27T16:43:13.315Z,8.60
2017-10-27T16:45:42.099Z,8.40
2017-10-27T16:48:11.677Z,8.10
2017-10-27T16:50:40.421Z,8.10
2017-10-27T16:53:09.251Z,8.00
2017-10-27T16:55:38.044Z,8.00
2017-10-27T16:58:07.640Z,7.80
2017-10-27T17:00:36.118Z,7.80
2017-10-27T17:03:05.732Z,7.90
2017-10-27T17:05:34.631Z,7.90
2017-10-27T17:08:03.422Z,8.00
2017-10-27T17:10:32.996Z,8.10
2017-10-27T17:13:01.891Z,8.10
2017-10-27T17:15:30.640Z,8.10
2017-10-27T17:17:59.418Z,8.00
2017-10-27T17:20:27.828Z,7.90
2017-10-27T17:22:56.574Z,8.00
2017-10-27T17:25:25.296Z,8.10
2017-10-27T17:27:54.335Z,8.10
2017-10-27T17:30:23.126Z,8.10
2017-10-27T17:32:51.931Z,8.10
2017-10-27T17:35:20.681Z,8.20
2017-10-27T17:37:50.495Z,8.20
2017-10-27T17:40:19.262Z,8.20
2017-10-27T17:42:48.034Z,8.40
2017-10-27T17:45:20.883Z,8.40
2017-10-27T17:47:49.015Z,8.60
2017-10-27T17:50:17.774Z,8.70
2017-10-27T17:52:46.547Z,8.80
2017-10-27T17:55:15.433Z,8.90
2017-10-27T17:57:44.180Z,8.80
2017-10-27T18:00:12.646Z,8.80
2017-10-27T18:02:41.418Z,8.50
2017-10-27T18:05:10.199Z,8.80
2017-10-27T18:07:38.804Z,8.70
2017-10-27T18:10:07.560Z,8.60
2017-10-27T18:12:36.276Z,8.40
2017-10-27T18:15:04.380Z,8.50
2017-10-27T18:17:32.774Z,8.70
2017-10-27T18:20:01.312Z,8.80
2017-10-27T18:22:30.089Z,8.80
2017-10-27T18:24:58.849Z,8.70
2017-10-27T18:27:27.582Z,8.40
2017-10-27T18:29:56.372Z,8.40
2017-10-27T18:32:24.845Z,8.50
2017-10-27T18:34:53.648Z,8.60
2017-10-27T18:37:22.419Z,8.60
2017-10-27T18:39:51.240Z,8.40
2017-10-27T18:42:20.010Z,8.20
2017-10-27T18:44:49.548Z,7.80
2017-10-27T18:47:18.328Z,7.80
2017-10-27T18:49:47.552Z,7.60
2017-10-27T18:52:16.331Z,7.20
2017-10-27T18:54:45.144Z,7.10
2017-10-27T18:57:14.687Z,7.60
2017-10-27T19:02:22.194Z,8.20
2017-10-27T19:04:50.972Z,8.50
2017-10-27T19:14:23.343Z,8.50
2017-10-27T19:34:43.566Z,8.30
2017-10-27T19:40:17.489Z,8.10
2017-10-27T19:54:51.302Z,7.80
2017-10-27T20:01:25.385Z,7.80
